Etusivu
METAR-TAF:

METAR-TAF

Lentoasemat :

Kelso, Washington, Yhdysvallat

Leveyspiiri: 46-07N, Pituuspiiri: 122-54W, korkeus merenpinnasta: 5 m

Tämänhetkinen sää

Tämä raportti tehtiin 52 minuuttia sitten, kello 00.56 UTC
tyyntä
Lämpötila 6°C
Kosteus 87%
Ilmanpaine 1025 hPa
Näkyvyys: 16.1 km
selkeää

METAR: KKLS 230056Z AUTO 00000KT 10SM CLR 06/04 A3028 RMK AO2 SLP258 T00610039

Aika: 17:48 (01:48 UTC)


TAF: puuttuu

Säähavainnot ja -ennusteet yli 4000 lentoasemalta (METAR- ja TAF-raportit).

Käytössä olevat sääasemat on merkitty karttaan keltaisilla ja punaisilla pisteillä.

Aseta hiiri pisteen päälle nähdäksesi sääaseman nimen.

Klikkaa sitten nähdäksesi säähavainnot ja -ennusteet.

Kartan vaihtaminen: klikkaa mustalla rastilla varustettuja vihreitä pisteitä, niin voit zoomata sisään; viivalla varustettua vihreää pistettä, niin voit zoomata ulos tai vihreitä nuolia, niin pääset viereisille kartoille.


METAR-TAF: